sensor_id;sensor_type;location;lat;lon;timestamp;P1;durP1;ratioP1;P2;durP2;ratioP2
44995;SDS011;30729;49.486;10.792;2023-03-14T00:01:56;0.77;;;0.40;;
44995;SDS011;30729;49.486;10.792;2023-03-14T00:05:20;0.22;;;0.22;;
44995;SDS011;30729;49.486;10.792;2023-03-14T00:08:44;0.40;;;0.40;;
44995;SDS011;30729;49.486;10.792;2023-03-14T00:12:08;1.90;;;0.30;;
44995;SDS011;30729;49.486;10.792;2023-03-14T00:15:33;0.20;;;0.20;;
44995;SDS011;30729;49.486;10.792;2023-03-14T00:19:00;0.30;;;0.30;;
44995;SDS011;30729;49.486;10.792;2023-03-14T00:22:29;1.05;;;0.50;;
44995;SDS011;30729;49.486;10.792;2023-03-14T00:25:58;0.52;;;0.30;;
44995;SDS011;30729;49.486;10.792;2023-03-14T00:29:21;1.33;;;0.55;;
44995;SDS011;30729;49.486;10.792;2023-03-14T00:32:46;0.40;;;0.30;;
44995;SDS011;30729;49.486;10.792;2023-03-14T00:36:17;1.00;;;0.50;;
44995;SDS011;30729;49.486;10.792;2023-03-14T00:39:41;0.20;;;0.20;;
44995;SDS011;30729;49.486;10.792;2023-03-14T00:43:05;0.45;;;0.38;;
44995;SDS011;30729;49.486;10.792;2023-03-14T00:46:29;0.25;;;0.25;;
44995;SDS011;30729;49.486;10.792;2023-03-14T00:49:52;0.45;;;0.32;;
44995;SDS011;30729;49.486;10.792;2023-03-14T00:53:16;0.40;;;0.30;;
44995;SDS011;30729;49.486;10.792;2023-03-14T00:56:40;0.80;;;0.40;;
44995;SDS011;30729;49.486;10.792;2023-03-14T01:00:04;1.67;;;0.77;;
44995;SDS011;30729;49.486;10.792;2023-03-14T01:03:37;0.45;;;0.30;;
44995;SDS011;30729;49.486;10.792;2023-03-14T01:07:02;0.20;;;0.20;;
44995;SDS011;30729;49.486;10.792;2023-03-14T01:10:26;0.28;;;0.28;;
44995;SDS011;30729;49.486;10.792;2023-03-14T01:13:55;0.45;;;0.45;;
44995;SDS011;30729;49.486;10.792;2023-03-14T01:17:19;0.20;;;0.20;;
44995;SDS011;30729;49.486;10.792;2023-03-14T01:20:43;0.65;;;0.40;;
44995;SDS011;30729;49.486;10.792;2023-03-14T01:24:07;0.50;;;0.50;;
44995;SDS011;30729;49.486;10.792;2023-03-14T01:27:32;0.68;;;0.40;;
44995;SDS011;30729;49.486;10.792;2023-03-14T01:30:56;0.77;;;0.30;;
44995;SDS011;30729;49.486;10.792;2023-03-14T01:34:19;0.20;;;0.20;;
44995;SDS011;30729;49.486;10.792;2023-03-14T01:37:43;0.30;;;0.30;;
44995;SDS011;30729;49.486;10.792;2023-03-14T01:41:07;0.30;;;0.30;;
44995;SDS011;30729;49.486;10.792;2023-03-14T01:44:51;2.42;;;0.50;;
44995;SDS011;30729;49.486;10.792;2023-03-14T01:52:03;0.82;;;0.40;;
44995;SDS011;30729;49.486;10.792;2023-03-14T01:55:29;1.17;;;0.65;;
44995;SDS011;30729;49.486;10.792;2023-03-14T01:58:53;0.43;;;0.40;;
44995;SDS011;30729;49.486;10.792;2023-03-14T02:02:24;0.82;;;0.55;;
44995;SDS011;30729;49.486;10.792;2023-03-14T02:05:49;1.20;;;0.45;;
44995;SDS011;30729;49.486;10.792;2023-03-14T02:09:51;0.35;;;0.30;;
44995;SDS011;30729;49.486;10.792;2023-03-14T02:13:17;0.47;;;0.30;;
44995;SDS011;30729;49.486;10.792;2023-03-14T02:16:58;0.40;;;0.40;;
44995;SDS011;30729;49.486;10.792;2023-03-14T02:27:27;0.40;;;0.40;;
44995;SDS011;30729;49.486;10.792;2023-03-14T02:30:51;0.20;;;0.20;;
44995;SDS011;30729;49.486;10.792;2023-03-14T02:34:15;0.47;;;0.43;;
44995;SDS011;30729;49.486;10.792;2023-03-14T02:37:43;1.88;;;0.73;;
44995;SDS011;30729;49.486;10.792;2023-03-14T02:41:22;0.55;;;0.38;;
44995;SDS011;30729;49.486;10.792;2023-03-14T02:44:53;0.68;;;0.47;;
44995;SDS011;30729;49.486;10.792;2023-03-14T02:48:18;1.05;;;0.35;;
44995;SDS011;30729;49.486;10.792;2023-03-14T02:51:43;1.35;;;0.45;;
44995;SDS011;30729;49.486;10.792;2023-03-14T02:55:08;2.50;;;0.30;;
44995;SDS011;30729;49.486;10.792;2023-03-14T02:58:33;0.70;;;0.30;;
44995;SDS011;30729;49.486;10.792;2023-03-14T03:01:59;0.65;;;0.30;;
44995;SDS011;30729;49.486;10.792;2023-03-14T03:05:22;0.95;;;0.85;;
44995;SDS011;30729;49.486;10.792;2023-03-14T03:08:46;0.73;;;0.43;;
44995;SDS011;30729;49.486;10.792;2023-03-14T03:12:10;0.15;;;0.15;;
44995;SDS011;30729;49.486;10.792;2023-03-14T03:15:34;0.88;;;0.25;;
44995;SDS011;30729;49.486;10.792;2023-03-14T03:18:58;0.20;;;0.20;;
44995;SDS011;30729;49.486;10.792;2023-03-14T03:22:21;0.82;;;0.45;;
44995;SDS011;30729;49.486;10.792;2023-03-14T03:25:51;2.00;;;0.60;;
44995;SDS011;30729;49.486;10.792;2023-03-14T03:29:15;1.40;;;0.50;;
44995;SDS011;30729;49.486;10.792;2023-03-14T03:32:39;0.40;;;0.30;;
44995;SDS011;30729;49.486;10.792;2023-03-14T03:36:03;0.93;;;0.30;;
44995;SDS011;30729;49.486;10.792;2023-03-14T03:39:27;0.57;;;0.30;;
44995;SDS011;30729;49.486;10.792;2023-03-14T03:42:51;0.85;;;0.45;;
44995;SDS011;30729;49.486;10.792;2023-03-14T03:46:15;1.40;;;0.40;;
44995;SDS011;30729;49.486;10.792;2023-03-14T03:49:39;1.40;;;0.50;;
44995;SDS011;30729;49.486;10.792;2023-03-14T03:53:08;1.33;;;0.50;;
44995;SDS011;30729;49.486;10.792;2023-03-14T03:56:32;0.20;;;0.20;;
44995;SDS011;30729;49.486;10.792;2023-03-14T03:59:56;2.72;;;0.40;;
44995;SDS011;30729;49.486;10.792;2023-03-14T04:03:20;1.65;;;0.30;;
44995;SDS011;30729;49.486;10.792;2023-03-14T04:06:43;1.17;;;0.40;;
44995;SDS011;30729;49.486;10.792;2023-03-14T04:10:07;0.20;;;0.20;;
44995;SDS011;30729;49.486;10.792;2023-03-14T04:13:31;0.50;;;0.30;;
44995;SDS011;30729;49.486;10.792;2023-03-14T04:16:55;0.35;;;0.30;;
44995;SDS011;30729;49.486;10.792;2023-03-14T04:20:23;1.15;;;0.52;;
44995;SDS011;30729;49.486;10.792;2023-03-14T04:23:47;0.30;;;0.30;;
44995;SDS011;30729;49.486;10.792;2023-03-14T04:27:10;0.73;;;0.50;;
44995;SDS011;30729;49.486;10.792;2023-03-14T04:30:34;0.65;;;0.35;;
44995;SDS011;30729;49.486;10.792;2023-03-14T04:33:58;0.98;;;0.50;;
44995;SDS011;30729;49.486;10.792;2023-03-14T04:37:22;1.08;;;0.30;;
44995;SDS011;30729;49.486;10.792;2023-03-14T04:40:45;0.30;;;0.30;;
44995;SDS011;30729;49.486;10.792;2023-03-14T04:44:10;0.63;;;0.40;;
44995;SDS011;30729;49.486;10.792;2023-03-14T04:47:34;0.35;;;0.30;;
44995;SDS011;30729;49.486;10.792;2023-03-14T04:50:57;1.17;;;0.40;;
44995;SDS011;30729;49.486;10.792;2023-03-14T04:54:21;1.88;;;0.40;;
44995;SDS011;30729;49.486;10.792;2023-03-14T04:57:45;0.30;;;0.30;;
44995;SDS011;30729;49.486;10.792;2023-03-14T05:01:09;0.50;;;0.40;;
44995;SDS011;30729;49.486;10.792;2023-03-14T05:04:33;1.13;;;0.60;;
44995;SDS011;30729;49.486;10.792;2023-03-14T05:07:56;0.40;;;0.40;;
44995;SDS011;30729;49.486;10.792;2023-03-14T05:11:20;0.30;;;0.30;;
44995;SDS011;30729;49.486;10.792;2023-03-14T05:14:44;3.42;;;0.70;;
44995;SDS011;30729;49.486;10.792;2023-03-14T05:18:08;0.60;;;0.25;;
44995;SDS011;30729;49.486;10.792;2023-03-14T05:21:32;2.85;;;0.70;;
44995;SDS011;30729;49.486;10.792;2023-03-14T05:24:56;1.65;;;0.45;;
44995;SDS011;30729;49.486;10.792;2023-03-14T05:28:20;2.15;;;0.50;;
44995;SDS011;30729;49.486;10.792;2023-03-14T05:31:44;2.22;;;0.40;;
44995;SDS011;30729;49.486;10.792;2023-03-14T05:35:07;2.72;;;0.63;;
44995;SDS011;30729;49.486;10.792;2023-03-14T05:38:32;1.95;;;0.82;;
44995;SDS011;30729;49.486;10.792;2023-03-14T05:41:55;3.67;;;0.70;;
44995;SDS011;30729;49.486;10.792;2023-03-14T05:45:19;2.20;;;0.88;;
44995;SDS011;30729;49.486;10.792;2023-03-14T05:48:43;2.83;;;0.75;;
44995;SDS011;30729;49.486;10.792;2023-03-14T05:52:07;2.95;;;0.85;;
44995;SDS011;30729;49.486;10.792;2023-03-14T05:55:30;2.42;;;0.80;;
44995;SDS011;30729;49.486;10.792;2023-03-14T05:58:54;5.25;;;1.90;;
44995;SDS011;30729;49.486;10.792;2023-03-14T06:02:18;11.98;;;6.10;;
44995;SDS011;30729;49.486;10.792;2023-03-14T06:05:42;11.02;;;5.70;;
44995;SDS011;30729;49.486;10.792;2023-03-14T06:09:06;8.05;;;5.15;;
44995;SDS011;30729;49.486;10.792;2023-03-14T06:12:30;4.65;;;2.55;;
44995;SDS011;30729;49.486;10.792;2023-03-14T06:15:54;2.35;;;1.05;;
44995;SDS011;30729;49.486;10.792;2023-03-14T06:19:18;1.77;;;0.80;;
44995;SDS011;30729;49.486;10.792;2023-03-14T06:22:42;2.38;;;0.70;;
44995;SDS011;30729;49.486;10.792;2023-03-14T06:26:06;1.77;;;0.50;;
44995;SDS011;30729;49.486;10.792;2023-03-14T06:29:30;0.50;;;0.45;;
44995;SDS011;30729;49.486;10.792;2023-03-14T06:32:54;1.20;;;0.55;;
44995;SDS011;30729;49.486;10.792;2023-03-14T06:36:18;2.00;;;0.70;;
44995;SDS011;30729;49.486;10.792;2023-03-14T06:39:42;1.50;;;0.85;;
44995;SDS011;30729;49.486;10.792;2023-03-14T06:43:05;2.50;;;0.80;;
44995;SDS011;30729;49.486;10.792;2023-03-14T06:46:29;1.40;;;0.50;;
44995;SDS011;30729;49.486;10.792;2023-03-14T06:49:53;2.97;;;0.95;;
44995;SDS011;30729;49.486;10.792;2023-03-14T06:53:17;5.43;;;0.98;;
44995;SDS011;30729;49.486;10.792;2023-03-14T06:56:41;2.80;;;1.02;;
44995;SDS011;30729;49.486;10.792;2023-03-14T07:00:05;2.65;;;0.80;;
44995;SDS011;30729;49.486;10.792;2023-03-14T07:03:29;3.30;;;0.57;;
44995;SDS011;30729;49.486;10.792;2023-03-14T07:06:53;0.75;;;0.57;;
44995;SDS011;30729;49.486;10.792;2023-03-14T07:10:17;4.85;;;1.45;;
44995;SDS011;30729;49.486;10.792;2023-03-14T07:13:40;8.23;;;1.15;;
44995;SDS011;30729;49.486;10.792;2023-03-14T07:17:04;4.90;;;1.23;;
44995;SDS011;30729;49.486;10.792;2023-03-14T07:20:28;2.92;;;0.55;;
44995;SDS011;30729;49.486;10.792;2023-03-14T07:23:52;2.53;;;0.60;;
44995;SDS011;30729;49.486;10.792;2023-03-14T07:27:16;5.10;;;1.40;;
44995;SDS011;30729;49.486;10.792;2023-03-14T07:30:39;7.57;;;2.92;;
44995;SDS011;30729;49.486;10.792;2023-03-14T07:34:03;3.20;;;1.00;;
44995;SDS011;30729;49.486;10.792;2023-03-14T07:37:27;6.78;;;1.35;;
44995;SDS011;30729;49.486;10.792;2023-03-14T07:40:57;3.10;;;0.77;;
44995;SDS011;30729;49.486;10.792;2023-03-14T07:44:21;1.65;;;0.50;;
44995;SDS011;30729;49.486;10.792;2023-03-14T07:47:44;2.65;;;0.70;;
44995;SDS011;30729;49.486;10.792;2023-03-14T07:51:08;4.18;;;0.98;;
44995;SDS011;30729;49.486;10.792;2023-03-14T07:54:32;3.05;;;0.80;;
44995;SDS011;30729;49.486;10.792;2023-03-14T07:57:56;5.05;;;0.90;;
44995;SDS011;30729;49.486;10.792;2023-03-14T08:01:20;5.85;;;1.10;;
44995;SDS011;30729;49.486;10.792;2023-03-14T08:04:47;2.10;;;0.50;;
44995;SDS011;30729;49.486;10.792;2023-03-14T08:08:14;1.67;;;0.60;;
44995;SDS011;30729;49.486;10.792;2023-03-14T08:11:38;1.80;;;0.60;;
44995;SDS011;30729;49.486;10.792;2023-03-14T08:15:01;4.20;;;0.60;;
44995;SDS011;30729;49.486;10.792;2023-03-14T08:18:25;1.80;;;0.55;;
44995;SDS011;30729;49.486;10.792;2023-03-14T08:21:49;2.15;;;0.70;;
44995;SDS011;30729;49.486;10.792;2023-03-14T08:25:13;1.95;;;0.52;;
44995;SDS011;30729;49.486;10.792;2023-03-14T08:28:37;3.05;;;0.50;;
44995;SDS011;30729;49.486;10.792;2023-03-14T08:32:01;2.33;;;0.63;;
44995;SDS011;30729;49.486;10.792;2023-03-14T08:35:25;3.65;;;0.80;;
44995;SDS011;30729;49.486;10.792;2023-03-14T08:38:50;3.67;;;0.93;;
44995;SDS011;30729;49.486;10.792;2023-03-14T08:42:13;1.60;;;0.55;;
44995;SDS011;30729;49.486;10.792;2023-03-14T08:45:37;4.57;;;0.65;;
44995;SDS011;30729;49.486;10.792;2023-03-14T08:49:01;1.67;;;0.45;;
44995;SDS011;30729;49.486;10.792;2023-03-14T08:52:25;2.90;;;0.70;;
44995;SDS011;30729;49.486;10.792;2023-03-14T08:55:52;1.73;;;0.68;;
44995;SDS011;30729;49.486;10.792;2023-03-14T08:59:16;1.25;;;0.40;;
44995;SDS011;30729;49.486;10.792;2023-03-14T09:02:40;2.65;;;0.63;;
44995;SDS011;30729;49.486;10.792;2023-03-14T09:06:04;2.55;;;0.52;;
44995;SDS011;30729;49.486;10.792;2023-03-14T09:09:28;2.58;;;0.65;;
44995;SDS011;30729;49.486;10.792;2023-03-14T09:12:52;1.90;;;0.73;;
44995;SDS011;30729;49.486;10.792;2023-03-14T09:16:16;1.55;;;0.57;;
44995;SDS011;30729;49.486;10.792;2023-03-14T09:19:39;2.83;;;0.63;;
44995;SDS011;30729;49.486;10.792;2023-03-14T09:23:04;5.88;;;0.80;;
44995;SDS011;30729;49.486;10.792;2023-03-14T09:26:28;2.65;;;0.85;;
44995;SDS011;30729;49.486;10.792;2023-03-14T09:29:53;2.45;;;0.63;;
44995;SDS011;30729;49.486;10.792;2023-03-14T09:33:17;1.08;;;0.50;;
44995;SDS011;30729;49.486;10.792;2023-03-14T09:36:41;1.45;;;0.65;;
44995;SDS011;30729;49.486;10.792;2023-03-14T09:40:05;0.73;;;0.50;;
44995;SDS011;30729;49.486;10.792;2023-03-14T09:43:37;1.73;;;0.93;;
44995;SDS011;30729;49.486;10.792;2023-03-14T09:47:07;1.27;;;0.40;;
44995;SDS011;30729;49.486;10.792;2023-03-14T09:50:43;3.92;;;0.50;;
44995;SDS011;30729;49.486;10.792;2023-03-14T09:54:11;1.48;;;0.30;;
44995;SDS011;30729;49.486;10.792;2023-03-14T09:57:40;1.27;;;0.45;;
44995;SDS011;30729;49.486;10.792;2023-03-14T10:01:07;3.85;;;0.80;;
44995;SDS011;30729;49.486;10.792;2023-03-14T10:04:44;2.80;;;0.40;;
44995;SDS011;30729;49.486;10.792;2023-03-14T10:08:11;2.35;;;0.60;;
44995;SDS011;30729;49.486;10.792;2023-03-14T10:11:40;1.58;;;0.30;;
44995;SDS011;30729;49.486;10.792;2023-03-14T10:15:10;3.33;;;0.60;;
44995;SDS011;30729;49.486;10.792;2023-03-14T10:18:35;0.85;;;0.43;;
44995;SDS011;30729;49.486;10.792;2023-03-14T10:22:00;0.65;;;0.20;;
44995;SDS011;30729;49.486;10.792;2023-03-14T10:25:46;1.63;;;0.50;;
44995;SDS011;30729;49.486;10.792;2023-03-14T10:29:13;4.35;;;0.40;;
44995;SDS011;30729;49.486;10.792;2023-03-14T10:32:51;1.02;;;0.50;;
44995;SDS011;30729;49.486;10.792;2023-03-14T10:36:24;1.55;;;0.60;;
44995;SDS011;30729;49.486;10.792;2023-03-14T10:40:01;2.17;;;0.68;;
44995;SDS011;30729;49.486;10.792;2023-03-14T10:43:33;1.95;;;0.47;;
44995;SDS011;30729;49.486;10.792;2023-03-14T10:47:00;3.35;;;1.27;;
44995;SDS011;30729;49.486;10.792;2023-03-14T10:50:32;2.15;;;0.52;;
44995;SDS011;30729;49.486;10.792;2023-03-14T10:57:19;0.75;;;0.45;;
44995;SDS011;30729;49.486;10.792;2023-03-14T11:00:45;0.28;;;0.28;;
44995;SDS011;30729;49.486;10.792;2023-03-14T11:12:28;1.95;;;0.40;;
44995;SDS011;30729;49.486;10.792;2023-03-14T11:16:09;0.93;;;0.32;;
44995;SDS011;30729;49.486;10.792;2023-03-14T11:20:10;0.65;;;0.40;;
44995;SDS011;30729;49.486;10.792;2023-03-14T11:23:50;0.55;;;0.30;;
44995;SDS011;30729;49.486;10.792;2023-03-14T11:27:30;0.98;;;0.40;;
44995;SDS011;30729;49.486;10.792;2023-03-14T11:31:11;0.25;;;0.20;;
44995;SDS011;30729;49.486;10.792;2023-03-14T11:34:49;0.52;;;0.20;;
44995;SDS011;30729;49.486;10.792;2023-03-14T11:42:04;2.17;;;0.40;;
44995;SDS011;30729;49.486;10.792;2023-03-14T11:45:37;1.85;;;0.20;;
44995;SDS011;30729;49.486;10.792;2023-03-14T11:49:30;0.98;;;0.30;;
44995;SDS011;30729;49.486;10.792;2023-03-14T11:52:57;0.40;;;0.20;;
44995;SDS011;30729;49.486;10.792;2023-03-14T11:56:46;0.73;;;0.22;;
44995;SDS011;30729;49.486;10.792;2023-03-14T12:00:15;0.20;;;0.20;;
44995;SDS011;30729;49.486;10.792;2023-03-14T12:07:17;1.02;;;0.28;;
44995;SDS011;30729;49.486;10.792;2023-03-14T12:10:51;0.20;;;0.20;;
44995;SDS011;30729;49.486;10.792;2023-03-14T12:17:46;0.30;;;0.30;;
44995;SDS011;30729;49.486;10.792;2023-03-14T12:21:11;1.13;;;0.50;;
44995;SDS011;30729;49.486;10.792;2023-03-14T12:24:51;0.88;;;0.32;;
44995;SDS011;30729;49.486;10.792;2023-03-14T12:28:35;0.98;;;0.30;;
44995;SDS011;30729;49.486;10.792;2023-03-14T12:32:23;0.60;;;0.38;;
44995;SDS011;30729;49.486;10.792;2023-03-14T12:35:58;0.30;;;0.30;;
44995;SDS011;30729;49.486;10.792;2023-03-14T12:42:59;0.35;;;0.30;;
44995;SDS011;30729;49.486;10.792;2023-03-14T12:46:43;0.20;;;0.20;;
44995;SDS011;30729;49.486;10.792;2023-03-14T12:50:18;0.55;;;0.22;;
44995;SDS011;30729;49.486;10.792;2023-03-14T13:01:23;0.30;;;0.22;;
44995;SDS011;30729;49.486;10.792;2023-03-14T13:05:05;0.13;;;0.13;;
44995;SDS011;30729;49.486;10.792;2023-03-14T13:08:33;0.30;;;0.20;;
44995;SDS011;30729;49.486;10.792;2023-03-14T13:12:02;0.30;;;0.30;;
44995;SDS011;30729;49.486;10.792;2023-03-14T13:15:33;0.25;;;0.20;;
44995;SDS011;30729;49.486;10.792;2023-03-14T13:19:01;0.75;;;0.30;;
44995;SDS011;30729;49.486;10.792;2023-03-14T13:22:31;0.55;;;0.30;;
44995;SDS011;30729;49.486;10.792;2023-03-14T13:25:58;0.50;;;0.20;;
44995;SDS011;30729;49.486;10.792;2023-03-14T13:29:23;0.55;;;0.20;;
44995;SDS011;30729;49.486;10.792;2023-03-14T13:32:50;0.85;;;0.40;;
44995;SDS011;30729;49.486;10.792;2023-03-14T13:36:21;0.30;;;0.30;;
44995;SDS011;30729;49.486;10.792;2023-03-14T13:39:50;0.90;;;0.30;;
44995;SDS011;30729;49.486;10.792;2023-03-14T13:43:16;1.00;;;0.32;;
44995;SDS011;30729;49.486;10.792;2023-03-14T13:46:47;4.20;;;1.20;;
44995;SDS011;30729;49.486;10.792;2023-03-14T13:50:15;1.45;;;0.25;;
44995;SDS011;30729;49.486;10.792;2023-03-14T13:53:45;1.08;;;0.60;;
44995;SDS011;30729;49.486;10.792;2023-03-14T13:57:09;2.28;;;1.00;;
44995;SDS011;30729;49.486;10.792;2023-03-14T14:00:38;0.50;;;0.50;;
44995;SDS011;30729;49.486;10.792;2023-03-14T14:04:13;0.65;;;0.40;;
44995;SDS011;30729;49.486;10.792;2023-03-14T14:07:39;0.80;;;0.70;;
44995;SDS011;30729;49.486;10.792;2023-03-14T14:15:00;0.70;;;0.50;;
44995;SDS011;30729;49.486;10.792;2023-03-14T14:18:26;1.35;;;0.80;;
44995;SDS011;30729;49.486;10.792;2023-03-14T14:21:52;3.97;;;1.75;;
44995;SDS011;30729;49.486;10.792;2023-03-14T14:25:16;1.17;;;0.50;;
44995;SDS011;30729;49.486;10.792;2023-03-14T14:28:41;0.60;;;0.50;;
44995;SDS011;30729;49.486;10.792;2023-03-14T14:35:57;1.15;;;0.60;;
44995;SDS011;30729;49.486;10.792;2023-03-14T14:39:20;0.82;;;0.57;;
44995;SDS011;30729;49.486;10.792;2023-03-14T14:42:04;1.10;;;0.60;;
44995;SDS011;30729;49.486;10.792;2023-03-14T14:44:30;1.83;;;0.57;;
44995;SDS011;30729;49.486;10.792;2023-03-14T14:46:58;0.98;;;0.70;;
44995;SDS011;30729;49.486;10.792;2023-03-14T14:49:28;0.50;;;0.50;;
44995;SDS011;30729;49.486;10.792;2023-03-14T14:52:00;0.77;;;0.47;;
44995;SDS011;30729;49.486;10.792;2023-03-14T14:54:37;0.90;;;0.70;;
44995;SDS011;30729;49.486;10.792;2023-03-14T14:57:20;0.98;;;0.80;;
44995;SDS011;30729;49.486;10.792;2023-03-14T14:59:50;0.85;;;0.70;;
44995;SDS011;30729;49.486;10.792;2023-03-14T15:02:24;1.98;;;1.42;;
44995;SDS011;30729;49.486;10.792;2023-03-14T15:04:53;1.25;;;0.55;;
44995;SDS011;30729;49.486;10.792;2023-03-14T15:07:19;0.77;;;0.70;;
44995;SDS011;30729;49.486;10.792;2023-03-14T15:09:44;1.65;;;0.70;;
44995;SDS011;30729;49.486;10.792;2023-03-14T15:12:09;1.33;;;0.75;;
44995;SDS011;30729;49.486;10.792;2023-03-14T15:14:35;2.33;;;1.02;;
44995;SDS011;30729;49.486;10.792;2023-03-14T15:17:00;3.25;;;1.50;;
44995;SDS011;30729;49.486;10.792;2023-03-14T15:19:25;1.55;;;0.90;;
44995;SDS011;30729;49.486;10.792;2023-03-14T15:21:52;3.85;;;1.38;;
44995;SDS011;30729;49.486;10.792;2023-03-14T15:24:18;4.30;;;1.42;;
44995;SDS011;30729;49.486;10.792;2023-03-14T15:26:43;4.28;;;1.70;;
44995;SDS011;30729;49.486;10.792;2023-03-14T15:29:09;3.10;;;1.40;;
44995;SDS011;30729;49.486;10.792;2023-03-14T15:31:37;3.20;;;1.40;;
44995;SDS011;30729;49.486;10.792;2023-03-14T15:34:03;3.75;;;1.70;;
44995;SDS011;30729;49.486;10.792;2023-03-14T15:36:29;3.65;;;1.50;;
44995;SDS011;30729;49.486;10.792;2023-03-14T15:38:57;6.43;;;2.38;;
44995;SDS011;30729;49.486;10.792;2023-03-14T15:41:23;5.05;;;1.30;;
44995;SDS011;30729;49.486;10.792;2023-03-14T15:43:49;2.55;;;1.40;;
44995;SDS011;30729;49.486;10.792;2023-03-14T15:46:15;4.05;;;2.00;;
44995;SDS011;30729;49.486;10.792;2023-03-14T15:48:42;2.60;;;1.35;;
44995;SDS011;30729;49.486;10.792;2023-03-14T15:51:08;4.80;;;1.95;;
44995;SDS011;30729;49.486;10.792;2023-03-14T15:53:33;2.30;;;1.50;;
44995;SDS011;30729;49.486;10.792;2023-03-14T15:56:01;3.40;;;1.52;;
44995;SDS011;30729;49.486;10.792;2023-03-14T15:58:27;4.38;;;1.70;;
44995;SDS011;30729;49.486;10.792;2023-03-14T16:00:53;4.10;;;1.50;;
44995;SDS011;30729;49.486;10.792;2023-03-14T16:03:18;4.10;;;1.67;;
44995;SDS011;30729;49.486;10.792;2023-03-14T16:05:43;4.32;;;1.63;;
44995;SDS011;30729;49.486;10.792;2023-03-14T16:08:09;3.85;;;1.10;;
44995;SDS011;30729;49.486;10.792;2023-03-14T16:10:34;3.20;;;1.25;;
44995;SDS011;30729;49.486;10.792;2023-03-14T16:12:59;3.65;;;1.35;;
44995;SDS011;30729;49.486;10.792;2023-03-14T16:15:25;4.13;;;1.10;;
44995;SDS011;30729;49.486;10.792;2023-03-14T16:17:52;3.67;;;1.50;;
44995;SDS011;30729;49.486;10.792;2023-03-14T16:20:18;2.42;;;1.23;;
44995;SDS011;30729;49.486;10.792;2023-03-14T16:22:44;3.15;;;1.52;;
44995;SDS011;30729;49.486;10.792;2023-03-14T16:25:10;4.85;;;1.30;;
44995;SDS011;30729;49.486;10.792;2023-03-14T16:27:35;2.35;;;1.33;;
44995;SDS011;30729;49.486;10.792;2023-03-14T16:30:00;3.63;;;1.60;;
44995;SDS011;30729;49.486;10.792;2023-03-14T16:32:26;2.88;;;1.33;;
44995;SDS011;30729;49.486;10.792;2023-03-14T16:34:51;2.95;;;1.77;;
44995;SDS011;30729;49.486;10.792;2023-03-14T16:37:16;3.67;;;1.50;;
44995;SDS011;30729;49.486;10.792;2023-03-14T16:39:42;3.22;;;1.40;;
44995;SDS011;30729;49.486;10.792;2023-03-14T16:42:07;4.00;;;1.98;;
44995;SDS011;30729;49.486;10.792;2023-03-14T16:44:32;2.90;;;1.40;;
44995;SDS011;30729;49.486;10.792;2023-03-14T16:46:58;6.60;;;1.85;;
44995;SDS011;30729;49.486;10.792;2023-03-14T16:49:23;3.97;;;1.70;;
44995;SDS011;30729;49.486;10.792;2023-03-14T16:51:48;3.85;;;1.20;;
44995;SDS011;30729;49.486;10.792;2023-03-14T16:54:13;2.83;;;1.30;;
44995;SDS011;30729;49.486;10.792;2023-03-14T16:56:39;1.75;;;0.80;;
44995;SDS011;30729;49.486;10.792;2023-03-14T16:59:04;2.70;;;1.45;;
44995;SDS011;30729;49.486;10.792;2023-03-14T17:01:29;3.58;;;1.13;;
44995;SDS011;30729;49.486;10.792;2023-03-14T17:03:54;4.68;;;1.35;;
44995;SDS011;30729;49.486;10.792;2023-03-14T17:06:21;3.10;;;1.15;;
44995;SDS011;30729;49.486;10.792;2023-03-14T17:08:48;2.47;;;0.68;;
44995;SDS011;30729;49.486;10.792;2023-03-14T17:11:14;3.42;;;1.25;;
44995;SDS011;30729;49.486;10.792;2023-03-14T17:13:40;2.17;;;1.20;;
44995;SDS011;30729;49.486;10.792;2023-03-14T17:16:05;3.47;;;0.90;;
44995;SDS011;30729;49.486;10.792;2023-03-14T17:18:31;3.10;;;0.95;;
44995;SDS011;30729;49.486;10.792;2023-03-14T17:20:56;3.70;;;1.17;;
44995;SDS011;30729;49.486;10.792;2023-03-14T17:23:23;3.15;;;1.55;;
44995;SDS011;30729;49.486;10.792;2023-03-14T17:25:49;4.68;;;1.77;;
44995;SDS011;30729;49.486;10.792;2023-03-14T17:28:16;4.60;;;1.17;;
44995;SDS011;30729;49.486;10.792;2023-03-14T17:30:42;2.75;;;1.25;;
44995;SDS011;30729;49.486;10.792;2023-03-14T17:33:07;3.03;;;1.17;;
44995;SDS011;30729;49.486;10.792;2023-03-14T17:35:33;3.47;;;1.55;;
44995;SDS011;30729;49.486;10.792;2023-03-14T17:37:58;2.88;;;1.30;;
44995;SDS011;30729;49.486;10.792;2023-03-14T17:40:24;2.33;;;1.50;;
44995;SDS011;30729;49.486;10.792;2023-03-14T17:42:49;3.63;;;1.45;;
44995;SDS011;30729;49.486;10.792;2023-03-14T17:45:15;2.35;;;1.02;;
44995;SDS011;30729;49.486;10.792;2023-03-14T17:47:41;5.75;;;1.00;;
44995;SDS011;30729;49.486;10.792;2023-03-14T17:50:06;3.78;;;0.93;;
44995;SDS011;30729;49.486;10.792;2023-03-14T17:52:33;0.70;;;0.60;;
44995;SDS011;30729;49.486;10.792;2023-03-14T17:54:59;1.17;;;0.70;;
44995;SDS011;30729;49.486;10.792;2023-03-14T17:57:25;2.05;;;0.98;;
44995;SDS011;30729;49.486;10.792;2023-03-14T17:59:50;1.65;;;0.80;;
44995;SDS011;30729;49.486;10.792;2023-03-14T18:02:17;2.10;;;1.02;;
44995;SDS011;30729;49.486;10.792;2023-03-14T18:04:43;2.97;;;1.10;;
44995;SDS011;30729;49.486;10.792;2023-03-14T18:07:09;4.47;;;1.48;;
44995;SDS011;30729;49.486;10.792;2023-03-14T18:09:34;2.67;;;1.00;;
44995;SDS011;30729;49.486;10.792;2023-03-14T18:11:59;2.15;;;0.90;;
44995;SDS011;30729;49.486;10.792;2023-03-14T18:14:25;2.63;;;1.30;;
44995;SDS011;30729;49.486;10.792;2023-03-14T18:16:50;2.75;;;1.40;;
44995;SDS011;30729;49.486;10.792;2023-03-14T18:19:18;4.90;;;1.90;;
44995;SDS011;30729;49.486;10.792;2023-03-14T18:21:43;3.90;;;1.85;;
44995;SDS011;30729;49.486;10.792;2023-03-14T18:24:09;5.18;;;1.60;;
44995;SDS011;30729;49.486;10.792;2023-03-14T18:26:35;2.40;;;1.10;;
44995;SDS011;30729;49.486;10.792;2023-03-14T18:29:00;2.28;;;1.00;;
44995;SDS011;30729;49.486;10.792;2023-03-14T18:31:26;1.98;;;1.00;;
44995;SDS011;30729;49.486;10.792;2023-03-14T18:33:51;3.85;;;1.27;;
44995;SDS011;30729;49.486;10.792;2023-03-14T18:36:19;5.05;;;1.20;;
44995;SDS011;30729;49.486;10.792;2023-03-14T18:38:45;2.65;;;0.93;;
44995;SDS011;30729;49.486;10.792;2023-03-14T18:41:13;2.00;;;0.90;;
44995;SDS011;30729;49.486;10.792;2023-03-14T18:43:40;1.98;;;1.00;;
44995;SDS011;30729;49.486;10.792;2023-03-14T18:46:06;4.88;;;1.35;;
44995;SDS011;30729;49.486;10.792;2023-03-14T18:48:31;3.90;;;0.90;;
44995;SDS011;30729;49.486;10.792;2023-03-14T18:50:57;4.82;;;1.23;;
44995;SDS011;30729;49.486;10.792;2023-03-14T18:53:23;5.07;;;1.17;;
44995;SDS011;30729;49.486;10.792;2023-03-14T18:55:55;2.80;;;1.15;;
44995;SDS011;30729;49.486;10.792;2023-03-14T18:58:22;1.95;;;1.00;;
44995;SDS011;30729;49.486;10.792;2023-03-14T19:01:46;4.35;;;1.80;;
44995;SDS011;30729;49.486;10.792;2023-03-14T19:04:32;3.17;;;1.40;;
44995;SDS011;30729;49.486;10.792;2023-03-14T19:09:58;3.20;;;1.52;;
44995;SDS011;30729;49.486;10.792;2023-03-14T19:12:24;5.80;;;2.38;;
44995;SDS011;30729;49.486;10.792;2023-03-14T19:14:49;4.57;;;1.33;;
44995;SDS011;30729;49.486;10.792;2023-03-14T19:17:14;5.22;;;2.00;;
44995;SDS011;30729;49.486;10.792;2023-03-14T19:19:40;3.00;;;1.50;;
44995;SDS011;30729;49.486;10.792;2023-03-14T19:22:05;4.38;;;2.10;;
44995;SDS011;30729;49.486;10.792;2023-03-14T19:24:30;5.30;;;1.77;;
44995;SDS011;30729;49.486;10.792;2023-03-14T19:26:56;5.10;;;2.30;;